Time;durP1;ratioP1;P1;durP2;ratioP2;P2;SDS_P1;SDS_P2;PMS_P1;PMS_P2;Temp;Humidity;BMP_temperature;BMP_pressure;BME280_temperature;BME280_humidity;BME280_pressure;Samples;Min_cycle;Max_cycle;Signal;HPM_P1;HPM_P2
2022/05/02 00:02:35;;;;;;;14.33;5.87;;;;;;;10.92;64.17;100933.08;3473907;84;99497;-87
2022/05/02 00:07:37;;;;;;;15.83;7.10;;;;;;;10.95;64.51;100923.28;3505095;83;28689;-86
2022/05/02 00:12:38;;;;;;;17.97;7.23;;;;;;;10.95;64.92;100912.27;3498174;83;98913;-85
2022/05/02 00:17:56;;;;;;;13.77;6.27;;;;;;;10.96;65.14;100911.87;3493437;83;99393;-85
2022/05/02 00:23:00;;;;;;;13.05;6.25;;;;;;;10.97;65.24;100916.81;3500906;82;99061;-88
2022/05/02 00:28:03;;;;;;;13.20;5.90;;;;;;;10.97;64.70;100915.44;3450099;84;99130;-86
2022/05/02 00:33:04;;;;;;;12.18;5.25;;;;;;;10.93;65.28;100918.14;3443454;84;99380;-87
2022/05/02 00:38:05;;;;;;;14.63;6.40;;;;;;;10.95;64.58;100933.70;3458354;84;27408;-87
2022/05/02 00:43:06;;;;;;;12.00;5.53;;;;;;;11.00;64.14;100958.19;3443577;84;99374;-87
2022/05/02 00:48:08;;;;;;;12.47;5.47;;;;;;;11.03;63.79;100964.35;3429088;84;99276;-87
2022/05/02 00:53:12;;;;;;;13.07;5.57;;;;;;;11.01;64.29;100970.02;3446643;84;99643;-87
2022/05/02 00:58:15;;;;;;;12.10;5.60;;;;;;;10.92;64.83;100955.11;3449603;85;99025;-87
2022/05/02 01:03:16;;;;;;;10.80;5.85;;;;;;;10.83;65.00;100957.86;3449397;84;99478;-86
2022/05/02 01:08:17;;;;;;;13.37;5.53;;;;;;;10.74;65.03;100960.07;3458873;84;28647;-87
2022/05/02 01:13:38;;;;;;;10.63;5.73;;;;;;;10.67;65.11;100963.48;3443582;85;99197;-87
2022/05/02 01:18:39;;;;;;;13.38;5.92;;;;;;;10.61;64.84;100960.00;3425713;84;99270;-87
2022/05/02 01:23:43;;;;;;;11.93;5.10;;;;;;;10.54;64.73;100952.98;3494992;83;99413;-86
2022/05/02 01:28:51;;;;;;;10.48;5.12;;;;;;;10.48;64.92;100959.95;3458508;85;98991;-87
2022/05/02 01:33:53;;;;;;;14.60;6.62;;;;;;;10.41;65.15;100957.84;3505680;83;99375;-87
2022/05/02 01:38:54;;;;;;;14.15;5.42;;;;;;;10.34;65.42;100959.66;3508000;83;99060;-86
2022/05/02 01:43:55;;;;;;;11.10;5.67;;;;;;;10.22;64.94;100941.92;3505815;83;98890;-86
2022/05/02 01:48:59;;;;;;;12.73;6.03;;;;;;;10.22;65.57;100947.42;3524953;83;98824;-86
2022/05/02 01:54:00;;;;;;;11.70;5.72;;;;;;;10.05;66.16;100939.61;3467302;83;98756;-86
2022/05/02 01:59:03;;;;;;;11.80;5.93;;;;;;;10.05;66.16;100939.61;3524575;83;98948;-86
2022/05/02 02:09:24;;;;;;;11.45;5.92;;;;;;;9.88;66.56;100930.37;3521203;83;98995;-87
2022/05/02 02:14:25;;;;;;;14.40;6.47;;;;;;;9.82;66.70;100921.59;3521254;82;98692;-86
2022/05/02 02:19:26;;;;;;;12.53;6.72;;;;;;;9.77;67.02;100923.84;3527691;83;98411;-86
2022/05/02 02:24:28;;;;;;;12.95;6.42;;;;;;;9.71;67.24;100921.94;3487970;83;98962;-86
2022/05/02 02:29:29;;;;;;;13.93;6.23;;;;;;;9.66;66.73;100918.09;3508568;83;98672;-85
2022/05/02 02:34:30;;;;;;;12.67;6.40;;;;;;;9.62;66.68;100913.69;3488242;83;98708;-86
2022/05/02 02:39:31;;;;;;;14.47;5.87;;;;;;;9.58;67.10;100909.48;3503550;83;98597;-86
2022/05/02 02:44:32;;;;;;;9.93;5.28;;;;;;;9.51;66.89;100920.89;3515850;83;98589;-86
2022/05/02 02:49:33;;;;;;;10.67;5.53;;;;;;;9.44;66.91;100910.52;3529429;83;25809;-86
2022/05/02 02:54:35;;;;;;;13.23;5.37;;;;;;;9.37;67.08;100902.72;3460656;84;99071;-87
2022/05/02 02:59:36;;;;;;;12.17;5.80;;;;;;;9.31;66.47;100895.88;3515407;83;99000;-87
2022/05/02 03:09:58;;;;;;;12.03;5.17;;;;;;;9.15;66.86;100903.34;3514492;83;98463;-86
2022/05/02 03:14:59;;;;;;;11.08;4.95;;;;;;;9.01;67.13;100901.08;3514364;83;99043;-86
2022/05/02 03:20:00;;;;;;;12.27;5.23;;;;;;;8.88;66.90;100911.90;3523344;83;26809;-86
2022/05/02 03:25:01;;;;;;;11.83;5.70;;;;;;;8.80;67.40;100911.52;3498844;83;98575;-88
2022/05/02 03:30:02;;;;;;;11.40;5.17;;;;;;;8.74;67.24;100919.79;3451592;83;98825;-86
2022/05/02 03:35:04;;;;;;;13.30;6.30;;;;;;;8.68;67.54;100915.68;3468475;83;98737;-85
2022/05/02 03:40:09;;;;;;;11.13;5.90;;;;;;;8.61;67.48;100906.49;3474708;83;99092;-86
2022/05/02 03:45:10;;;;;;;11.30;5.37;;;;;;;8.54;68.03;100904.35;3494404;84;99122;-86
2022/05/02 03:50:11;;;;;;;13.17;6.10;;;;;;;8.49;68.10;100905.17;3495903;84;25812;-86
2022/05/02 03:55:12;;;;;;;13.10;6.10;;;;;;;8.40;67.92;100906.70;3504123;83;98556;-86
2022/05/02 04:00:14;;;;;;;14.50;6.33;;;;;;;8.40;68.28;100900.44;3482886;84;98516;-86
2022/05/02 04:05:15;;;;;;;13.17;6.30;;;;;;;8.41;68.34;100899.28;3496016;84;98954;-87
2022/05/02 04:10:16;;;;;;;11.53;6.60;;;;;;;8.42;69.00;100901.68;3492792;83;98853;-86
2022/05/02 04:15:20;;;;;;;12.17;5.87;;;;;;;8.43;69.18;100900.53;3499175;84;99183;-87
2022/05/02 04:20:21;;;;;;;15.50;6.50;;;;;;;8.45;69.45;100901.55;3499120;83;32444;-86
2022/05/02 04:25:22;;;;;;;12.40;5.73;;;;;;;8.48;69.46;100895.34;3475579;84;98298;-86
2022/05/02 04:30:23;;;;;;;12.20;5.60;;;;;;;8.51;69.45;100892.70;3446844;84;99038;-88
2022/05/02 04:35:24;;;;;;;11.80;5.30;;;;;;;8.63;69.27;100905.55;3474956;83;98666;-86
2022/05/02 04:40:25;;;;;;;13.20;6.10;;;;;;;8.74;68.91;100911.56;3442493;86;98627;-87
2022/05/02 04:45:26;;;;;;;12.30;5.57;;;;;;;8.86;69.19;100927.12;3441892;86;98828;-86
2022/05/02 04:50:27;;;;;;;10.77;5.80;;;;;;;8.94;69.08;100929.70;3466192;84;98747;-85
2022/05/02 04:55:28;;;;;;;12.53;6.43;;;;;;;9.03;68.66;100928.96;3431165;86;98089;-86
2022/05/02 05:00:29;;;;;;;12.80;5.90;;;;;;;9.09;68.91;100919.30;3477676;84;98485;-82
2022/05/02 05:05:30;;;;;;;11.97;5.53;;;;;;;9.12;68.26;100921.35;3471658;84;98700;-86
2022/05/02 05:10:59;;;;;;;12.17;5.60;;;;;;;9.16;67.69;100923.58;3463219;84;99132;-85
2022/05/02 05:16:33;;;;;;;13.60;5.45;;;;;;;9.23;67.35;100932.02;3476533;83;98993;-85
2022/05/02 05:21:51;;;;;;;15.68;5.60;;;;;;;9.33;66.99;100923.21;3371303;85;98700;-86
2022/05/02 05:27:00;;;;;;;12.40;4.70;;;;;;;9.51;66.66;100925.81;3485516;84;98776;-87
2022/05/02 05:32:32;;;;;;;9.60;5.53;;;;;;;9.70;65.84;100920.95;3545229;83;98654;-87
2022/05/02 05:38:00;;;;;;;11.33;6.22;;;;;;;10.01;66.00;100922.19;3529703;83;98379;-88
2022/05/02 05:43:16;;;;;;;13.05;5.90;;;;;;;10.67;67.63;100929.63;3528484;83;98976;-87
2022/05/02 05:48:28;;;;;;;15.90;6.78;;;;;;;11.44;66.72;100926.25;3518745;83;98778;-87
2022/05/02 05:53:40;;;;;;;13.75;5.80;;;;;;;12.13;66.05;100925.70;3518456;83;98930;-88
2022/05/02 05:59:07;;;;;;;10.90;5.50;;;;;;;12.81;65.06;100923.30;3520747;83;98997;-88
2022/05/02 06:04:10;;;;;;;12.73;5.80;;;;;;;13.39;63.67;100924.81;3529732;83;99150;-88
2022/05/02 06:09:14;;;;;;;12.37;6.70;;;;;;;13.77;61.86;100925.67;3538137;83;99042;-88
2022/05/02 06:14:16;;;;;;;11.15;5.87;;;;;;;14.10;61.46;100912.42;3548271;83;98915;-88
2022/05/02 06:19:24;;;;;;;15.08;6.20;;;;;;;14.11;59.91;100909.84;3522795;83;98935;-87
2022/05/02 06:24:27;;;;;;;11.50;6.30;;;;;;;14.20;59.15;100910.90;3511674;82;98932;-88
2022/05/02 06:29:28;;;;;;;11.53;5.60;;;;;;;14.33;59.00;100915.70;3536647;83;99062;-87
2022/05/02 06:34:31;;;;;;;10.78;5.95;;;;;;;14.45;57.55;100913.18;3514129;83;98938;-88
2022/05/02 06:39:55;;;;;;;12.63;6.62;;;;;;;14.45;58.26;100911.80;3527226;83;99015;-87
2022/05/02 06:45:32;;;;;;;14.03;6.03;;;;;;;14.65;57.85;100917.17;3508972;83;98935;-87
2022/05/02 06:50:36;;;;;;;10.05;5.65;;;;;;;14.78;57.36;100915.02;3535116;83;99157;-87
2022/05/02 06:56:11;;;;;;;16.67;6.97;;;;;;;14.96;57.08;100922.79;3544631;82;98656;-88
2022/05/02 07:01:41;;;;;;;11.20;5.67;;;;;;;14.96;57.07;100926.14;3514205;83;99287;-87
2022/05/02 07:07:15;;;;;;;12.23;5.90;;;;;;;14.95;56.43;100921.21;3520839;83;99171;-88
2022/05/02 07:12:25;;;;;;;11.70;6.10;;;;;;;14.88;55.92;100925.34;3412807;85;99418;-87
2022/05/02 07:17:46;;;;;;;11.60;6.40;;;;;;;14.95;56.36;100928.72;3497904;83;98253;-86
2022/05/02 07:23:15;;;;;;;12.33;7.10;;;;;;;15.19;55.99;100925.97;3498709;81;98971;-86
2022/05/02 07:28:31;;;;;;;10.48;5.80;;;;;;;15.36;55.79;100923.04;3440644;85;98990;-88
2022/05/02 07:33:37;;;;;;;11.40;6.40;;;;;;;15.55;54.99;100917.06;3404423;85;99056;-87
2022/05/02 07:38:38;;;;;;;;;;;;;;;15.57;54.96;100915.48;3438416;85;99103;-86
2022/05/02 07:43:41;;;;;;;14.07;6.62;;;;;;;15.76;53.59;100916.41;3429523;85;84807;-88
2022/05/02 07:48:43;;;;;;;12.78;5.67;;;;;;;15.78;54.33;100916.83;3434597;84;98832;-87
2022/05/02 07:53:46;;;;;;;16.50;6.67;;;;;;;15.97;53.98;100916.98;3477592;83;99496;-87
2022/05/02 07:58:51;;;;;;;14.45;6.00;;;;;;;15.97;53.43;100916.37;3469399;84;98973;-87
2022/05/02 08:03:53;;;;;;;11.10;5.58;;;;;;;16.24;52.87;100911.13;3445188;84;99026;-86
2022/05/02 08:09:22;;;;;;;12.40;5.33;;;;;;;16.49;51.86;100910.43;3483974;84;98976;-87
2022/05/02 08:14:40;;;;;;;11.12;5.35;;;;;;;16.64;52.80;100914.13;3489608;84;98743;-87
2022/05/02 08:20:15;;;;;;;11.90;4.80;;;;;;;17.02;52.05;100908.91;3486295;84;99010;-85
2022/05/02 08:31:18;;;;;;;9.58;4.92;;;;;;;18.40;50.55;100904.34;3478206;84;99008;-88
2022/05/02 08:36:41;;;;;;;8.70;3.67;;;;;;;19.56;49.45;100902.56;3466932;83;99104;-86
2022/05/02 08:42:22;;;;;;;7.08;3.22;;;;;;;20.36;47.94;100902.98;3533157;83;98858;-88
2022/05/02 08:47:44;;;;;;;10.28;4.17;;;;;;;21.55;46.90;100897.36;3527701;83;98776;-88
2022/05/02 08:52:53;;;;;;;11.08;3.90;;;;;;;22.31;44.09;100895.86;3510451;83;99267;-86
2022/05/02 08:58:20;;;;;;;7.50;3.62;;;;;;;23.29;41.90;100880.77;3452018;84;99080;-87
2022/05/02 09:03:53;;;;;;;7.72;3.83;;;;;;;23.77;42.25;100875.42;3449404;84;99031;-85
2022/05/02 09:09:37;;;;;;;9.13;3.62;;;;;;;24.21;40.63;100872.84;3439854;84;98924;-88
2022/05/02 09:14:59;;;;;;;5.37;3.37;;;;;;;24.96;40.17;100870.87;3460877;84;98299;-86
2022/05/02 09:20:26;;;;;;;5.53;2.75;;;;;;;25.34;38.21;100875.55;3488206;83;98509;-89
2022/05/02 09:25:38;;;;;;;7.72;3.42;;;;;;;25.89;37.07;100879.97;3461717;83;99034;-89
2022/05/02 09:31:00;;;;;;;7.57;3.37;;;;;;;26.65;36.47;100879.75;3495049;83;98909;-86
2022/05/02 09:36:15;;;;;;;6.28;3.27;;;;;;;27.19;35.17;100870.40;3503716;83;98809;-87
2022/05/02 09:41:21;;;;;;;8.33;4.28;;;;;;;27.91;35.26;100858.59;3513046;83;98871;-89
2022/05/02 09:52:15;;;;;;;6.45;3.40;;;;;;;28.28;33.57;100856.19;3497185;82;99212;-87
2022/05/02 09:57:21;;;;;;;6.78;3.60;;;;;;;28.93;32.28;100852.25;3528416;83;98798;-87
2022/05/02 10:02:23;;;;;;;7.97;3.33;;;;;;;29.23;32.67;100841.00;3536128;82;98917;-87
2022/05/02 10:07:25;;;;;;;8.93;3.50;;;;;;;29.45;31.57;100838.45;3536579;82;98966;-88
2022/05/02 10:13:00;;;;;;;6.55;3.35;;;;;;;29.66;31.04;100825.06;3522307;82;98743;-87
2022/05/02 10:18:31;;;;;;;6.45;3.77;;;;;;;29.68;30.43;100821.87;3512968;83;100045;-85
2022/05/02 10:23:58;;;;;;;6.90;3.45;;;;;;;29.90;29.85;100823.52;3541491;82;98952;-87
2022/05/02 10:29:42;;;;;;;6.45;3.25;;;;;;;29.38;29.18;100818.25;3536536;83;98909;-88
2022/05/02 10:34:46;;;;;;;5.78;3.50;;;;;;;29.53;29.42;100798.45;3512407;82;98840;-87
2022/05/02 10:39:50;;;;;;;;;;;;;;;29.55;29.06;100793.73;3475309;84;98894;-89
2022/05/02 10:45:05;;;;;;;7.50;4.03;;;;;;;29.36;29.20;100791.80;3486738;83;84796;-88
2022/05/02 10:50:28;;;;;;;7.47;4.08;;;;;;;29.68;29.25;100786.40;3533457;83;98879;-87
2022/05/02 10:55:32;;;;;;;7.10;4.33;;;;;;;29.64;29.04;100785.83;3516172;83;99217;-87
2022/05/02 11:00:35;;;;;;;9.15;4.08;;;;;;;29.41;29.35;100774.70;3508917;83;99009;-87
2022/05/02 11:06:03;;;;;;;8.05;4.05;;;;;;;29.63;28.46;100781.44;3534465;82;99197;-88
2022/05/02 11:11:07;;;;;;;6.72;3.67;;;;;;;29.49;28.62;100778.05;3500843;83;99575;-88
2022/05/02 11:16:27;;;;;;;6.70;3.70;;;;;;;29.56;28.47;100769.75;3538135;83;98816;-88
2022/05/02 11:21:49;;;;;;;8.45;4.15;;;;;;;29.42;28.65;100762.86;3495576;83;99174;-87
2022/05/02 11:27:11;;;;;;;9.75;3.83;;;;;;;29.76;28.26;100754.87;3509530;82;26976;-88
2022/05/02 11:32:33;;;;;;;6.22;3.40;;;;;;;29.54;27.58;100748.20;3500733;84;99005;-89
2022/05/02 11:38:30;;;;;;;6.85;3.80;;;;;;;29.29;28.51;100741.81;3457604;84;99201;-88
2022/05/02 11:43:36;;;;;;;7.33;3.75;;;;;;;29.39;28.12;100742.61;3439426;84;98963;-88
2022/05/02 11:49:02;;;;;;;6.58;4.08;;;;;;;29.42;28.14;100734.50;3487054;84;98882;-88
2022/05/02 11:54:15;;;;;;;7.50;4.55;;;;;;;29.16;28.79;100726.58;3498105;84;98858;-85
2022/05/02 11:59:20;;;;;;;9.80;4.75;;;;;;;29.28;27.38;100716.95;3498610;83;98878;-86
2022/05/02 12:04:22;;;;;;;;;;;;;;;28.22;27.39;100707.45;3499085;83;98841;-87
2022/05/02 12:09:24;;;;;;;8.58;4.83;;;;;;;28.28;27.71;100707.55;3511070;83;84037;-85
2022/05/02 12:14:25;;;;;;;7.90;4.55;;;;;;;28.00;27.72;100702.09;3505876;83;98646;-86
2022/05/02 12:19:33;;;;;;;6.55;3.58;;;;;;;27.63;27.55;100691.00;3504590;83;99099;-88
2022/05/02 12:24:39;;;;;;;7.37;3.62;;;;;;;27.47;28.63;100680.17;3503159;84;99159;-89
2022/05/02 12:29:42;;;;;;;7.28;4.00;;;;;;;27.11;28.24;100684.70;3522474;82;98851;-90
2022/05/02 12:34:50;;;;;;;7.92;3.62;;;;;;;26.76;29.13;100671.03;3504927;82;98878;-85
2022/05/02 12:40:07;;;;;;;6.62;3.52;;;;;;;26.61;28.99;100668.16;3520011;82;98875;-90
2022/05/02 12:45:11;;;;;;;5.87;3.85;;;;;;;26.33;30.33;100656.06;3532937;83;98660;-90
2022/05/02 12:50:18;;;;;;;8.43;3.45;;;;;;;26.33;30.33;100656.06;3533715;83;98857;-87
2022/05/02 12:55:21;;;;;;;7.05;3.50;;;;;;;26.27;29.63;100644.63;3459189;84;98693;-88
2022/05/02 13:00:33;;;;;;;8.60;3.80;;;;;;;26.51;30.17;100646.06;3526239;83;99290;-87
2022/05/02 13:05:34;;;;;;;7.30;3.60;;;;;;;26.42;29.66;100637.67;3510027;83;98888;-88
2022/05/02 13:10:35;;;;;;;10.25;4.25;;;;;;;26.11;30.12;100633.74;3480504;83;99289;-89
2022/05/02 13:15:46;;;;;;;6.65;3.80;;;;;;;26.34;30.49;100617.48;3509771;83;98963;-89
2022/05/02 13:21:11;;;;;;;5.90;3.42;;;;;;;25.90;30.31;100614.24;3508474;83;98523;-86
2022/05/02 13:26:40;;;;;;;7.97;3.98;;;;;;;25.96;29.84;100615.97;3508833;84;98473;-86
2022/05/02 13:31:56;;;;;;;8.45;4.25;;;;;;;25.55;28.90;100619.53;3542826;83;98869;-84
2022/05/02 13:37:18;;;;;;;7.72;3.20;;;;;;;25.56;29.88;100614.70;3549894;83;98728;-87
2022/05/02 13:42:53;;;;;;;7.15;3.37;;;;;;;25.54;29.58;100609.53;3538100;82;98840;-87
2022/05/02 13:48:51;;;;;;;12.43;5.17;;;;;;;25.29;30.39;100593.63;3471891;84;99420;-86
2022/05/02 13:54:07;;;;;;;7.37;3.40;;;;;;;25.15;29.32;100597.06;3521792;82;99480;-86
2022/05/02 13:59:24;;;;;;;;;;;;;;;24.78;29.37;100588.49;3524269;83;98831;-88
2022/05/02 14:04:39;;;;;;;10.43;3.98;;;;;;;24.44;30.64;100584.55;3495794;83;84707;-86
2022/05/02 14:09:51;;;;;;;6.35;3.50;;;;;;;24.26;30.00;100584.53;3517655;83;98943;-86
2022/05/02 14:15:09;;;;;;;5.75;3.15;;;;;;;24.06;30.86;100575.73;3526808;83;98430;-87
2022/05/02 14:20:28;;;;;;;7.62;2.70;;;;;;;23.80;31.98;100558.91;3532294;83;98451;-86
2022/05/02 14:25:40;;;;;;;6.50;3.42;;;;;;;24.10;34.02;100561.70;3519900;83;98584;-88
2022/05/02 14:30:49;;;;;;;5.10;3.05;;;;;;;24.46;31.89;100550.47;3503481;83;99061;-87
2022/05/02 14:35:51;;;;;;;6.25;3.35;;;;;;;24.32;32.80;100546.89;3525211;83;99621;-87
2022/05/02 14:40:55;;;;;;;5.92;2.85;;;;;;;24.21;31.66;100546.56;3539794;82;99235;-87
2022/05/02 14:45:56;;;;;;;5.15;2.75;;;;;;;24.24;32.86;100537.17;3513620;83;98023;-87
2022/05/02 14:51:09;;;;;;;5.83;2.83;;;;;;;24.10;31.38;100542.63;3491311;83;98538;-87
2022/05/02 14:56:13;;;;;;;5.95;2.87;;;;;;;23.83;30.88;100541.13;3525529;83;98651;-85
2022/05/02 15:01:16;;;;;;;6.65;3.77;;;;;;;23.43;32.21;100528.48;3511762;83;98695;-85
2022/05/02 15:06:25;;;;;;;6.50;3.02;;;;;;;23.22;31.23;100525.11;3525010;82;99216;-86
2022/05/02 15:11:53;;;;;;;8.23;4.22;;;;;;;22.89;32.14;100521.14;3504207;83;98884;-89
2022/05/02 15:17:27;;;;;;;6.60;2.58;;;;;;;22.50;31.26;100509.82;3528119;83;98807;-89
2022/05/02 15:22:34;;;;;;;6.80;3.10;;;;;;;22.18;32.21;100503.89;3488323;83;99409;-89
2022/05/02 15:38:57;;;;;;;6.60;3.37;;;;;;;21.68;33.85;100498.42;3503798;84;98849;-90
2022/05/02 15:43:58;;;;;;;6.05;3.10;;;;;;;21.45;33.52;100491.75;3513376;83;99089;-87
2022/05/02 15:49:07;;;;;;;7.37;2.92;;;;;;;21.26;33.62;100480.15;3483914;84;97913;-88
2022/05/02 15:54:23;;;;;;;9.55;3.02;;;;;;;21.06;33.65;100480.20;3454695;84;98856;-88
2022/05/02 15:59:36;;;;;;;7.25;3.33;;;;;;;20.91;34.48;100472.86;3518291;82;98834;-87
2022/05/02 16:04:53;;;;;;;6.92;2.70;;;;;;;20.72;34.99;100475.82;3531582;81;99201;-87
2022/05/02 16:15:24;;;;;;;6.87;2.92;;;;;;;20.69;36.48;100464.91;3529391;82;98152;-87
2022/05/02 16:20:26;;;;;;;5.22;2.92;;;;;;;20.36;35.62;100470.46;3497824;83;98911;-86
2022/05/02 16:25:29;;;;;;;5.33;3.27;;;;;;;20.18;36.98;100466.59;3469607;84;99012;-85
2022/05/02 16:30:31;;;;;;;6.80;3.00;;;;;;;19.92;36.20;100471.84;3520716;82;99288;-82
2022/05/02 16:35:33;;;;;;;8.10;2.95;;;;;;;19.59;36.52;100466.91;3450610;84;99299;-86
2022/05/02 16:40:36;;;;;;;8.03;2.85;;;;;;;19.51;36.68;100468.92;3515812;83;98870;-86
2022/05/02 16:45:37;;;;;;;7.67;2.80;;;;;;;19.41;37.32;100467.94;3510665;83;98872;-86
2022/05/02 16:50:40;;;;;;;5.55;2.60;;;;;;;19.29;37.46;100475.61;3509072;83;98515;-85
2022/05/02 16:55:41;;;;;;;7.67;3.47;;;;;;;19.14;37.98;100473.56;3516747;83;98690;-85
2022/05/02 17:00:59;;;;;;;9.78;5.53;;;;;;;19.02;38.07;100462.46;3506668;83;98811;-87
2022/05/02 17:06:05;;;;;;;7.10;3.83;;;;;;;18.86;38.32;100462.42;3521931;83;99145;-86
2022/05/02 17:11:07;;;;;;;9.18;4.12;;;;;;;18.72;38.66;100456.38;3513604;83;99290;-86
2022/05/02 17:16:18;;;;;;;8.55;3.65;;;;;;;18.67;39.15;100456.88;3521240;83;98821;-86
2022/05/02 17:21:21;;;;;;;7.65;4.20;;;;;;;18.56;39.58;100454.92;3519567;83;98548;-87
2022/05/02 17:26:24;;;;;;;6.45;2.85;;;;;;;18.37;39.61;100457.13;3487564;83;99257;-86
2022/05/02 17:31:26;;;;;;;7.08;3.47;;;;;;;18.20;39.89;100459.62;3511169;83;99103;-87
2022/05/02 17:36:27;;;;;;;6.10;3.05;;;;;;;18.08;40.39;100458.23;3544398;82;98798;-86
2022/05/02 17:41:28;;;;;;;5.78;3.00;;;;;;;17.90;40.30;100459.78;3520893;82;98901;-86
2022/05/02 17:46:38;;;;;;;8.30;3.65;;;;;;;17.77;40.87;100465.79;3541489;82;98783;-87
2022/05/02 17:51:41;;;;;;;6.15;3.25;;;;;;;17.58;41.14;100473.45;3530492;83;99286;-86
2022/05/02 17:56:42;;;;;;;7.53;4.40;;;;;;;17.37;41.59;100475.16;3495469;84;33342;-87
2022/05/02 18:01:43;;;;;;;11.85;4.37;;;;;;;17.14;41.95;100473.73;3515858;83;99026;-87
2022/05/02 18:06:44;;;;;;;9.40;4.15;;;;;;;16.87;42.11;100472.34;3472998;84;98948;-87
2022/05/02 18:17:32;;;;;;;12.40;4.75;;;;;;;16.44;42.75;100485.20;3480706;84;99467;-86
2022/05/02 18:22:35;;;;;;;10.32;5.30;;;;;;;16.22;43.08;100488.59;3467193;84;99016;-87
2022/05/02 18:27:45;;;;;;;9.85;5.25;;;;;;;16.03;43.59;100491.36;3509751;82;99055;-86
2022/05/02 18:32:51;;;;;;;11.33;5.60;;;;;;;15.90;44.06;100503.39;3546626;82;98524;-87
2022/05/02 18:38:12;;;;;;;8.43;4.72;;;;;;;15.69;44.48;100503.60;3549813;83;98788;-86
2022/05/02 18:43:14;;;;;;;13.35;5.15;;;;;;;15.51;45.04;100514.03;3509930;83;98662;-86
2022/05/02 18:53:39;;;;;;;15.38;5.78;;;;;;;15.12;45.61;100518.44;3521862;82;98892;-86
2022/05/02 18:58:43;;;;;;;11.43;5.45;;;;;;;14.91;46.15;100522.70;3493013;83;98854;-86
2022/05/02 19:03:49;;;;;;;13.13;6.33;;;;;;;14.68;46.60;100522.42;3499275;83;98994;-85
2022/05/02 19:08:54;;;;;;;18.10;8.70;;;;;;;14.49;47.23;100527.64;3534261;81;33210;-86
2022/05/02 19:13:57;;;;;;;16.62;8.00;;;;;;;14.24;47.77;100526.33;3510560;83;98812;-86
2022/05/02 19:19:00;;;;;;;12.85;7.65;;;;;;;14.04;48.05;100533.44;3528659;83;99188;-86
2022/05/02 19:24:19;;;;;;;15.80;6.55;;;;;;;13.88;48.65;100530.29;3513764;83;99362;-86
2022/05/02 19:29:25;;;;;;;11.18;6.53;;;;;;;13.76;48.84;100529.89;3498224;83;99536;-85
2022/05/02 19:39:47;;;;;;;10.78;6.03;;;;;;;13.46;49.03;100541.33;3505991;84;98928;-86
2022/05/02 19:44:59;;;;;;;12.97;6.00;;;;;;;13.28;49.26;100528.66;3493679;84;98867;-86
2022/05/02 19:50:00;;;;;;;13.80;6.45;;;;;;;13.11;49.44;100532.99;3487710;84;98877;-85
2022/05/02 19:55:03;;;;;;;16.20;7.17;;;;;;;12.99;50.10;100540.27;3480267;84;98885;-85
2022/05/02 20:00:10;;;;;;;14.30;7.42;;;;;;;12.84;50.24;100527.55;3492954;84;98908;-84
2022/05/02 20:05:09;;;;;;;12.93;6.30;;;;;;;12.73;51.00;100530.86;3477240;84;99063;-85
2022/05/02 20:10:11;;;;;;;18.02;6.92;;;;;;;12.62;51.29;100536.94;3478209;84;99018;-85
2022/05/02 20:15:12;;;;;;;13.13;6.17;;;;;;;12.45;51.62;100538.22;3486618;84;98584;-85
2022/05/02 20:20:13;;;;;;;17.98;7.78;;;;;;;12.27;52.10;100538.11;3484977;83;99289;-84
2022/05/02 20:25:14;;;;;;;12.47;6.77;;;;;;;12.17;52.52;100535.30;3490669;84;98757;-84
2022/05/02 20:30:15;;;;;;;18.55;7.90;;;;;;;12.05;52.80;100537.78;3483318;83;98920;-85
2022/05/02 20:40:41;;;;;;;13.00;7.20;;;;;;;11.79;53.32;100539.38;3486468;83;99034;-85
2022/05/02 20:45:45;;;;;;;15.95;7.00;;;;;;;11.66;53.65;100537.30;3471237;84;99017;-86
2022/05/02 20:50:47;;;;;;;12.85;6.72;;;;;;;11.54;53.94;100544.42;3461876;83;98673;-86
2022/05/02 20:55:57;;;;;;;12.82;6.87;;;;;;;11.40;54.48;100547.06;3502938;84;98858;-85
2022/05/02 21:00:58;;;;;;;12.37;6.72;;;;;;;11.26;54.73;100549.09;3487222;84;99225;-85
2022/05/02 21:06:00;;;;;;;15.47;6.30;;;;;;;11.17;55.12;100546.45;3506538;83;99042;-85
2022/05/02 21:11:36;;;;;;;13.33;6.13;;;;;;;11.04;55.51;100540.98;3497082;84;98967;-85
2022/05/02 21:16:32;;;;;;;11.43;6.12;;;;;;;10.90;55.77;100546.34;3501418;84;99032;-85
2022/05/02 21:22:00;;;;;;;9.73;5.25;;;;;;;10.78;55.89;100535.56;3495046;83;98966;-85
2022/05/02 21:27:26;;;;;;;9.48;5.80;;;;;;;10.68;56.38;100541.75;3507840;83;33559;-85
2022/05/02 21:32:31;;;;;;;10.23;5.90;;;;;;;10.56;56.69;100530.39;3528089;83;98884;-85
2022/05/02 21:37:37;;;;;;;10.53;6.08;;;;;;;10.42;57.22;100528.05;3529477;83;98835;-85
2022/05/02 21:42:40;;;;;;;12.40;5.83;;;;;;;10.29;57.60;100529.42;3465156;83;99076;-85
2022/05/02 21:47:41;;;;;;;12.23;7.10;;;;;;;10.18;58.31;100536.16;3509449;84;98878;-85
2022/05/02 21:52:42;;;;;;;12.50;6.67;;;;;;;10.12;58.46;100525.84;3478933;83;98894;-85
2022/05/02 21:57:43;;;;;;;14.80;7.00;;;;;;;10.01;58.76;100529.80;3501029;84;28337;-85
2022/05/02 22:02:44;;;;;;;13.63;6.97;;;;;;;9.88;58.92;100533.13;3471897;84;99112;-85
2022/05/02 22:07:52;;;;;;;12.63;6.43;;;;;;;9.74;59.63;100536.44;3437985;85;98946;-86
2022/05/02 22:12:53;;;;;;;10.50;5.85;;;;;;;9.62;60.21;100535.27;3535878;82;98924;-86
2022/05/02 22:17:55;;;;;;;12.27;5.77;;;;;;;9.50;60.32;100542.34;3558569;82;98980;-86
2022/05/02 22:22:56;;;;;;;13.90;6.60;;;;;;;9.47;60.16;100543.05;3502179;83;98704;-85
2022/05/02 22:27:56;;;;;;;14.50;6.93;;;;;;;9.42;61.01;100539.23;3524060;83;26328;-85
2022/05/02 22:32:57;;;;;;;13.57;6.80;;;;;;;9.35;61.51;100535.57;3509250;83;98456;-86
2022/05/02 22:37:58;;;;;;;14.47;7.83;;;;;;;9.27;61.77;100533.27;3504025;84;98465;-85
2022/05/02 22:42:59;;;;;;;15.43;8.23;;;;;;;9.20;62.30;100535.09;3496687;83;98628;-86
2022/05/02 22:48:00;;;;;;;14.17;8.17;;;;;;;9.11;62.84;100534.56;3503374;84;98670;-85
2022/05/02 22:53:02;;;;;;;12.88;6.75;;;;;;;9.05;62.96;100536.02;3484902;83;99151;-86
2022/05/02 22:58:05;;;;;;;13.50;7.27;;;;;;;8.95;62.91;100536.00;3497674;84;99045;-84
2022/05/02 23:03:20;;;;;;;17.03;7.87;;;;;;;8.86;63.07;100528.60;3479650;84;98346;-85
2022/05/02 23:08:48;;;;;;;15.18;7.45;;;;;;;8.75;63.23;100526.79;3455529;85;98757;-85
2022/05/02 23:13:50;;;;;;;13.68;6.35;;;;;;;8.64;63.58;100524.41;3486455;83;124081;-85
2022/05/02 23:18:51;;;;;;;14.23;7.55;;;;;;;8.57;63.45;100522.91;3482481;84;98814;-85
2022/05/02 23:23:54;;;;;;;14.43;6.58;;;;;;;8.55;63.22;100523.83;3456649;85;99845;-85
2022/05/02 23:28:55;;;;;;;10.90;5.53;;;;;;;8.54;63.04;100527.73;3460437;84;98737;-84
2022/05/02 23:34:05;;;;;;;12.40;5.60;;;;;;;8.50;62.88;100524.91;3500812;83;98138;-84
2022/05/02 23:39:08;;;;;;;12.75;5.30;;;;;;;8.48;62.64;100522.31;3552138;82;98320;-84
2022/05/02 23:44:34;;;;;;;12.88;5.62;;;;;;;8.45;62.89;100509.34;3493014;83;98492;-85
2022/05/02 23:49:39;;;;;;;10.20;5.33;;;;;;;8.37;62.73;100513.88;3502161;83;98672;-85
2022/05/02 23:54:54;;;;;;;11.78;4.80;;;;;;;8.31;62.74;100515.32;3505426;83;98663;-84
